sensor_id;sensor_type;location;lat;lon;timestamp;pressure;altitude;pressure_sealevel;temperature;humidity
75577;BME280;64157;50.138;14.544;2022-10-30T00:01:56;99006.97;;;9.90;93.97
75577;BME280;64157;50.138;14.544;2022-10-30T00:04:22;99004.38;;;9.84;93.73
75577;BME280;64157;50.138;14.544;2022-10-30T00:06:47;99011.88;;;9.75;93.70
75577;BME280;64157;50.138;14.544;2022-10-30T00:09:13;99002.00;;;9.66;94.02
75577;BME280;64157;50.138;14.544;2022-10-30T00:11:39;98973.69;;;9.48;93.80
75577;BME280;64157;50.138;14.544;2022-10-30T00:14:05;98999.13;;;9.62;93.84
75577;BME280;64157;50.138;14.544;2022-10-30T00:16:31;99001.19;;;9.65;94.00
75577;BME280;64157;50.138;14.544;2022-10-30T00:18:56;98978.72;;;9.55;93.95
75577;BME280;64157;50.138;14.544;2022-10-30T00:21:21;98951.56;;;9.27;93.80
75577;BME280;64157;50.138;14.544;2022-10-30T00:23:48;98988.44;;;9.52;93.91
75577;BME280;64157;50.138;14.544;2022-10-30T00:26:14;98991.63;;;9.63;94.20
75577;BME280;64157;50.138;14.544;2022-10-30T00:28:40;98950.03;;;9.56;94.03
75577;BME280;64157;50.138;14.544;2022-10-30T00:31:06;98995.78;;;9.86;94.10
75577;BME280;64157;50.138;14.544;2022-10-30T00:33:31;98980.28;;;9.64;93.97
75577;BME280;64157;50.138;14.544;2022-10-30T00:35:57;99009.13;;;9.75;93.92
75577;BME280;64157;50.138;14.544;2022-10-30T00:38:23;98974.00;;;9.55;93.77
75577;BME280;64157;50.138;14.544;2022-10-30T00:40:48;98991.16;;;9.69;93.94
75577;BME280;64157;50.138;14.544;2022-10-30T00:43:38;98968.97;;;9.57;93.93
75577;BME280;64157;50.138;14.544;2022-10-30T00:46:23;98947.00;;;9.40;94.00
75577;BME280;64157;50.138;14.544;2022-10-30T00:51:36;99002.00;;;9.74;93.96
75577;BME280;64157;50.138;14.544;2022-10-30T00:54:03;98974.44;;;9.66;93.94
75577;BME280;64157;50.138;14.544;2022-10-30T00:56:30;98974.44;;;9.66;94.08
75577;BME280;64157;50.138;14.544;2022-10-30T00:59:00;98969.75;;;9.66;94.05
75577;BME280;64157;50.138;14.544;2022-10-30T01:01:28;99000.13;;;9.96;93.95
75577;BME280;64157;50.138;14.544;2022-10-30T01:03:59;98988.34;;;9.86;94.03
75577;BME280;64157;50.138;14.544;2022-10-30T01:06:27;98984.59;;;9.91;94.06
75577;BME280;64157;50.138;14.544;2022-10-30T01:08:54;98993.53;;;9.88;93.81
75577;BME280;64157;50.138;14.544;2022-10-30T01:11:19;98986.38;;;9.87;93.85
75577;BME280;64157;50.138;14.544;2022-10-30T01:13:47;98996.56;;;9.95;93.83
75577;BME280;64157;50.138;14.544;2022-10-30T01:21:50;98991.03;;;9.95;93.92
75577;BME280;64157;50.138;14.544;2022-10-30T01:32:56;98989.63;;;10.27;93.82
75577;BME280;64157;50.138;14.544;2022-10-30T01:38:09;98947.66;;;10.13;93.92
75577;BME280;64157;50.138;14.544;2022-10-30T01:40:36;98961.72;;;10.29;93.99
75577;BME280;64157;50.138;14.544;2022-10-30T01:43:02;98961.13;;;10.23;93.91
75577;BME280;64157;50.138;14.544;2022-10-30T01:50:56;98943.53;;;9.98;93.92
75577;BME280;64157;50.138;14.544;2022-10-30T01:53:45;98941.75;;;9.94;94.05
75577;BME280;64157;50.138;14.544;2022-10-30T01:56:29;98906.69;;;9.65;94.13
75577;BME280;64157;50.138;14.544;2022-10-30T02:01:36;98919.38;;;9.57;94.30
75577;BME280;64157;50.138;14.544;2022-10-30T02:04:02;98933.31;;;9.61;94.33
75577;BME280;64157;50.138;14.544;2022-10-30T02:06:28;98928.31;;;9.54;94.41
75577;BME280;64157;50.138;14.544;2022-10-30T02:08:54;98896.97;;;9.21;94.17
75577;BME280;64157;50.138;14.544;2022-10-30T02:11:22;98907.50;;;9.27;94.34
75577;BME280;64157;50.138;14.544;2022-10-30T02:13:48;98942.09;;;9.54;94.46
75577;BME280;64157;50.138;14.544;2022-10-30T02:16:15;98919.16;;;9.24;94.52
75577;BME280;64157;50.138;14.544;2022-10-30T02:18:40;98944.72;;;9.33;94.60
75577;BME280;64157;50.138;14.544;2022-10-30T02:21:05;98945.41;;;9.22;94.31
75577;BME280;64157;50.138;14.544;2022-10-30T02:23:33;98963.34;;;9.45;94.23
75577;BME280;64157;50.138;14.544;2022-10-30T02:25:59;98928.78;;;8.92;94.15
75577;BME280;64157;50.138;14.544;2022-10-30T02:28:24;98957.56;;;9.03;94.23
75577;BME280;64157;50.138;14.544;2022-10-30T02:30:49;98976.66;;;9.17;94.10
75577;BME280;64157;50.138;14.544;2022-10-30T02:33:15;98975.22;;;9.20;94.17
75577;BME280;64157;50.138;14.544;2022-10-30T02:35:40;98938.16;;;9.08;94.34
75577;BME280;64157;50.138;14.544;2022-10-30T02:38:05;98965.66;;;9.26;94.34
75577;BME280;64157;50.138;14.544;2022-10-30T02:40:31;98943.31;;;9.18;94.30
75577;BME280;64157;50.138;14.544;2022-10-30T02:42:56;98962.88;;;9.43;94.38
75577;BME280;64157;50.138;14.544;2022-10-30T02:45:22;98937.09;;;9.39;94.51
75577;BME280;64157;50.138;14.544;2022-10-30T02:47:47;98925.13;;;9.35;94.25
75577;BME280;64157;50.138;14.544;2022-10-30T02:50:13;98950.50;;;9.58;94.37
75577;BME280;64157;50.138;14.544;2022-10-30T02:52:38;98898.59;;;9.22;94.25
75577;BME280;64157;50.138;14.544;2022-10-30T02:55:04;98926.94;;;9.31;94.17
75577;BME280;64157;50.138;14.544;2022-10-30T02:57:30;98935.31;;;9.34;94.36
75577;BME280;64157;50.138;14.544;2022-10-30T02:59:56;98939.09;;;9.30;94.27
75577;BME280;64157;50.138;14.544;2022-10-30T03:02:21;98949.91;;;9.35;94.42
75577;BME280;64157;50.138;14.544;2022-10-30T03:04:47;98918.72;;;9.13;94.46
75577;BME280;64157;50.138;14.544;2022-10-30T03:07:12;98890.88;;;8.89;94.52
75577;BME280;64157;50.138;14.544;2022-10-30T03:09:38;98878.94;;;8.76;94.22
75577;BME280;64157;50.138;14.544;2022-10-30T03:12:03;98890.28;;;8.84;94.41
75577;BME280;64157;50.138;14.544;2022-10-30T03:14:29;98905.97;;;8.83;94.48
75577;BME280;64157;50.138;14.544;2022-10-30T03:16:55;98927.19;;;8.82;94.16
75577;BME280;64157;50.138;14.544;2022-10-30T03:19:20;98923.44;;;8.61;94.37
75577;BME280;64157;50.138;14.544;2022-10-30T03:21:46;98946.91;;;8.76;94.38
75577;BME280;64157;50.138;14.544;2022-10-30T03:24:11;98909.03;;;8.56;94.38
75577;BME280;64157;50.138;14.544;2022-10-30T03:26:37;98940.28;;;8.68;94.36
75577;BME280;64157;50.138;14.544;2022-10-30T03:29:02;98906.78;;;8.49;94.59
75577;BME280;64157;50.138;14.544;2022-10-30T03:31:29;98917.47;;;8.51;94.63
75577;BME280;64157;50.138;14.544;2022-10-30T03:33:55;98933.00;;;8.64;94.43
75577;BME280;64157;50.138;14.544;2022-10-30T03:36:21;98928.78;;;8.58;94.50
75577;BME280;64157;50.138;14.544;2022-10-30T03:38:46;98939.16;;;8.52;94.48
75577;BME280;64157;50.138;14.544;2022-10-30T03:41:11;98903.00;;;8.28;94.37
75577;BME280;64157;50.138;14.544;2022-10-30T03:43:37;98917.78;;;8.32;94.58
75577;BME280;64157;50.138;14.544;2022-10-30T03:46:03;98929.38;;;8.29;94.63
75577;BME280;64157;50.138;14.544;2022-10-30T03:48:29;98926.78;;;8.24;94.58
75577;BME280;64157;50.138;14.544;2022-10-30T03:50:56;98955.81;;;8.38;94.44
75577;BME280;64157;50.138;14.544;2022-10-30T03:53:22;98943.94;;;8.29;94.63
75577;BME280;64157;50.138;14.544;2022-10-30T03:55:51;98930.94;;;8.04;94.60
75577;BME280;64157;50.138;14.544;2022-10-30T03:58:16;98940.88;;;8.22;94.45
75577;BME280;64157;50.138;14.544;2022-10-30T04:00:42;98947.47;;;8.21;94.62
75577;BME280;64157;50.138;14.544;2022-10-30T04:03:08;98894.38;;;7.95;94.56
75577;BME280;64157;50.138;14.544;2022-10-30T04:05:34;98939.72;;;8.23;94.43
75577;BME280;64157;50.138;14.544;2022-10-30T04:08:03;98926.44;;;8.08;94.25
75577;BME280;64157;50.138;14.544;2022-10-30T04:10:28;98922.88;;;8.16;94.36
75577;BME280;64157;50.138;14.544;2022-10-30T04:13:05;98926.59;;;8.11;94.42
75577;BME280;64157;50.138;14.544;2022-10-30T04:15:31;98936.09;;;7.97;94.62
75577;BME280;64157;50.138;14.544;2022-10-30T04:17:57;98920.09;;;7.99;94.58
75577;BME280;64157;50.138;14.544;2022-10-30T04:20:24;98940.31;;;8.03;94.39
75577;BME280;64157;50.138;14.544;2022-10-30T04:23:04;98901.81;;;7.86;94.58
75577;BME280;64157;50.138;14.544;2022-10-30T04:25:31;98922.38;;;8.05;94.58
75577;BME280;64157;50.138;14.544;2022-10-30T04:27:57;98913.47;;;8.00;94.67
75577;BME280;64157;50.138;14.544;2022-10-30T04:30:23;98902.78;;;7.90;94.48
75577;BME280;64157;50.138;14.544;2022-10-30T04:32:51;98899.06;;;7.86;94.59
75577;BME280;64157;50.138;14.544;2022-10-30T04:35:18;98937.56;;;8.03;94.58
75577;BME280;64157;50.138;14.544;2022-10-30T04:38:01;98912.03;;;8.02;94.97
75577;BME280;64157;50.138;14.544;2022-10-30T04:40:32;98885.63;;;7.84;94.61
75577;BME280;64157;50.138;14.544;2022-10-30T04:42:58;98902.03;;;8.06;94.64
75577;BME280;64157;50.138;14.544;2022-10-30T04:45:24;98891.50;;;8.00;94.76
75577;BME280;64157;50.138;14.544;2022-10-30T04:47:50;98875.31;;;7.98;94.75
75577;BME280;64157;50.138;14.544;2022-10-30T04:50:16;98875.66;;;8.05;94.69
75577;BME280;64157;50.138;14.544;2022-10-30T04:52:42;98901.38;;;8.27;94.79
75577;BME280;64157;50.138;14.544;2022-10-30T04:55:09;98878.59;;;8.09;94.75
75577;BME280;64157;50.138;14.544;2022-10-30T04:57:35;98902.16;;;8.10;94.92
75577;BME280;64157;50.138;14.544;2022-10-30T05:00:03;98904.78;;;8.15;94.92
75577;BME280;64157;50.138;14.544;2022-10-30T05:02:29;98878.88;;;7.99;94.77
75577;BME280;64157;50.138;14.544;2022-10-30T05:04:54;98913.16;;;8.10;94.69
75577;BME280;64157;50.138;14.544;2022-10-30T05:07:19;98921.41;;;8.10;94.72
75577;BME280;64157;50.138;14.544;2022-10-30T05:09:45;98921.72;;;8.00;94.85
75577;BME280;64157;50.138;14.544;2022-10-30T05:12:10;98926.09;;;8.01;94.60
75577;BME280;64157;50.138;14.544;2022-10-30T05:14:36;98932.06;;;7.94;94.40
75577;BME280;64157;50.138;14.544;2022-10-30T05:17:02;98919.03;;;7.69;94.23
75577;BME280;64157;50.138;14.544;2022-10-30T05:19:27;98932.75;;;7.60;94.61
75577;BME280;64157;50.138;14.544;2022-10-30T05:21:53;98924.13;;;7.53;94.50
75577;BME280;64157;50.138;14.544;2022-10-30T05:24:19;98887.03;;;7.25;94.32
75577;BME280;64157;50.138;14.544;2022-10-30T05:26:44;98901.28;;;7.35;94.63
75577;BME280;64157;50.138;14.544;2022-10-30T05:29:10;98912.13;;;7.40;94.47
75577;BME280;64157;50.138;14.544;2022-10-30T05:31:36;98925.00;;;7.62;94.52
75577;BME280;64157;50.138;14.544;2022-10-30T05:34:01;98907.47;;;7.41;94.36
75577;BME280;64157;50.138;14.544;2022-10-30T05:36:27;98916.38;;;7.47;94.43
75577;BME280;64157;50.138;14.544;2022-10-30T05:38:52;98927.31;;;7.38;94.36
75577;BME280;64157;50.138;14.544;2022-10-30T05:41:17;98889.19;;;7.05;94.64
75577;BME280;64157;50.138;14.544;2022-10-30T05:43:43;98916.38;;;7.16;94.46
75577;BME280;64157;50.138;14.544;2022-10-30T05:46:08;98879.72;;;6.89;94.38
75577;BME280;64157;50.138;14.544;2022-10-30T05:48:34;98904.03;;;7.04;94.38
75577;BME280;64157;50.138;14.544;2022-10-30T05:50:59;98928.81;;;7.22;94.44
75577;BME280;64157;50.138;14.544;2022-10-30T05:53:25;98877.38;;;7.05;94.73
75577;BME280;64157;50.138;14.544;2022-10-30T05:55:50;98926.06;;;7.44;94.43
75577;BME280;64157;50.138;14.544;2022-10-30T05:58:16;98882.34;;;6.94;94.41
75577;BME280;64157;50.138;14.544;2022-10-30T06:00:41;98921.44;;;7.00;94.34
75577;BME280;64157;50.138;14.544;2022-10-30T06:03:12;98958.28;;;7.07;94.19
75577;BME280;64157;50.138;14.544;2022-10-30T06:05:38;98952.88;;;7.16;94.25
75577;BME280;64157;50.138;14.544;2022-10-30T06:08:05;98943.06;;;7.24;94.14
75577;BME280;64157;50.138;14.544;2022-10-30T06:10:31;98954.22;;;7.27;94.08
75577;BME280;64157;50.138;14.544;2022-10-30T06:12:59;98946.53;;;7.38;94.32
75577;BME280;64157;50.138;14.544;2022-10-30T06:15:26;98939.28;;;7.42;94.14
75577;BME280;64157;50.138;14.544;2022-10-30T06:17:52;98943.66;;;7.43;93.91
75577;BME280;64157;50.138;14.544;2022-10-30T06:20:19;98962.28;;;7.55;93.81
75577;BME280;64157;50.138;14.544;2022-10-30T06:23:01;98956.38;;;7.70;93.65
75577;BME280;64157;50.138;14.544;2022-10-30T06:25:29;98924.81;;;7.59;93.56
75577;BME280;64157;50.138;14.544;2022-10-30T06:27:55;98962.88;;;7.83;93.48
75577;BME280;64157;50.138;14.544;2022-10-30T06:30:21;98959.63;;;7.81;93.23
75577;BME280;64157;50.138;14.544;2022-10-30T06:32:47;98942.81;;;7.73;93.28
75577;BME280;64157;50.138;14.544;2022-10-30T06:35:13;98953.00;;;7.82;93.08
75577;BME280;64157;50.138;14.544;2022-10-30T06:37:47;98951.50;;;7.67;93.13
75577;BME280;64157;50.138;14.544;2022-10-30T06:40:13;98948.50;;;7.77;93.18
75577;BME280;64157;50.138;14.544;2022-10-30T06:42:45;98937.66;;;7.81;93.15
75577;BME280;64157;50.138;14.544;2022-10-30T06:45:12;98946.25;;;7.79;92.98
75577;BME280;64157;50.138;14.544;2022-10-30T06:47:37;98924.03;;;7.67;93.09
75577;BME280;64157;50.138;14.544;2022-10-30T06:50:08;98954.06;;;8.03;93.21
75577;BME280;64157;50.138;14.544;2022-10-30T06:52:34;98925.91;;;7.89;93.17
75577;BME280;64157;50.138;14.544;2022-10-30T06:54:59;98888.50;;;7.70;93.21
75577;BME280;64157;50.138;14.544;2022-10-30T06:57:25;98954.81;;;8.34;93.21
75577;BME280;64157;50.138;14.544;2022-10-30T06:59:50;98926.94;;;8.19;93.50
75577;BME280;64157;50.138;14.544;2022-10-30T07:02:16;98962.44;;;8.37;92.74
75577;BME280;64157;50.138;14.544;2022-10-30T07:04:41;98959.38;;;8.39;92.52
75577;BME280;64157;50.138;14.544;2022-10-30T07:07:06;98884.38;;;7.99;92.22
75577;BME280;64157;50.138;14.544;2022-10-30T07:09:32;98842.16;;;7.78;92.31
75577;BME280;64157;50.138;14.544;2022-10-30T07:11:57;98906.78;;;8.32;91.92
75577;BME280;64157;50.138;14.544;2022-10-30T07:14:23;98961.63;;;8.63;91.83
75577;BME280;64157;50.138;14.544;2022-10-30T07:16:48;98960.03;;;8.62;92.06
75577;BME280;64157;50.138;14.544;2022-10-30T07:19:14;98912.06;;;8.28;91.93
75577;BME280;64157;50.138;14.544;2022-10-30T07:21:39;98902.44;;;8.39;92.20
75577;BME280;64157;50.138;14.544;2022-10-30T07:24:05;98886.38;;;8.41;92.26
75577;BME280;64157;50.138;14.544;2022-10-30T07:26:31;98926.50;;;8.77;92.30
75577;BME280;64157;50.138;14.544;2022-10-30T07:28:58;98942.69;;;9.04;92.06
75577;BME280;64157;50.138;14.544;2022-10-30T07:31:23;98933.63;;;9.12;91.77
75577;BME280;64157;50.138;14.544;2022-10-30T07:33:49;98962.88;;;9.43;91.65
75577;BME280;64157;50.138;14.544;2022-10-30T07:36:14;98930.13;;;9.41;91.39
75577;BME280;64157;50.138;14.544;2022-10-30T07:38:40;98924.50;;;9.21;91.02
75577;BME280;64157;50.138;14.544;2022-10-30T07:41:05;98946.50;;;9.46;90.91
75577;BME280;64157;50.138;14.544;2022-10-30T07:43:30;98945.44;;;9.68;90.73
75577;BME280;64157;50.138;14.544;2022-10-30T07:45:56;98954.63;;;9.81;90.78
75577;BME280;64157;50.138;14.544;2022-10-30T07:48:22;98935.72;;;10.00;90.47
75577;BME280;64157;50.138;14.544;2022-10-30T07:50:47;98938.56;;;10.21;89.87
75577;BME280;64157;50.138;14.544;2022-10-30T07:53:13;98940.03;;;10.69;88.09
75577;BME280;64157;50.138;14.544;2022-10-30T07:55:38;98956.78;;;11.17;87.63
75577;BME280;64157;50.138;14.544;2022-10-30T07:58:03;98926.28;;;10.81;87.12
75577;BME280;64157;50.138;14.544;2022-10-30T08:00:29;98951.50;;;10.71;87.05
75577;BME280;64157;50.138;14.544;2022-10-30T08:02:55;98955.56;;;10.73;87.71
75577;BME280;64157;50.138;14.544;2022-10-30T08:05:21;98921.34;;;10.24;86.66
75577;BME280;64157;50.138;14.544;2022-10-30T08:07:46;98975.06;;;10.47;88.40
75577;BME280;64157;50.138;14.544;2022-10-30T08:10:12;98979.44;;;10.48;88.17
75577;BME280;64157;50.138;14.544;2022-10-30T08:12:38;98976.06;;;11.26;85.41
75577;BME280;64157;50.138;14.544;2022-10-30T08:15:06;98960.06;;;11.32;83.56
75577;BME280;64157;50.138;14.544;2022-10-30T08:17:32;98960.41;;;11.75;84.92
75577;BME280;64157;50.138;14.544;2022-10-30T08:19:57;98971.75;;;12.31;84.85
75577;BME280;64157;50.138;14.544;2022-10-30T08:22:23;98965.19;;;11.99;84.69
75577;BME280;64157;50.138;14.544;2022-10-30T08:24:49;98981.78;;;12.23;85.20
75577;BME280;64157;50.138;14.544;2022-10-30T08:27:14;98988.13;;;12.24;85.43
75577;BME280;64157;50.138;14.544;2022-10-30T08:29:40;98988.94;;;12.00;84.56
75577;BME280;64157;50.138;14.544;2022-10-30T08:32:06;98994.34;;;11.96;85.76
75577;BME280;64157;50.138;14.544;2022-10-30T08:34:31;98977.75;;;11.96;84.13
75577;BME280;64157;50.138;14.544;2022-10-30T08:36:58;98984.66;;;12.39;83.50
75577;BME280;64157;50.138;14.544;2022-10-30T08:39:24;98976.00;;;12.53;83.70
75577;BME280;64157;50.138;14.544;2022-10-30T08:41:49;98977.75;;;12.33;81.48
75577;BME280;64157;50.138;14.544;2022-10-30T08:44:15;98922.31;;;12.69;83.43
75577;BME280;64157;50.138;14.544;2022-10-30T08:46:40;98950.38;;;13.08;80.47
75577;BME280;64157;50.138;14.544;2022-10-30T08:49:06;98959.31;;;12.37;80.93
75577;BME280;64157;50.138;14.544;2022-10-30T08:51:32;98926.00;;;11.27;83.45
75577;BME280;64157;50.138;14.544;2022-10-30T08:53:58;98960.13;;;11.11;84.83
75577;BME280;64157;50.138;14.544;2022-10-30T08:56:24;98968.53;;;11.14;86.78
75577;BME280;64157;50.138;14.544;2022-10-30T08:58:50;98964.03;;;12.00;84.58
75577;BME280;64157;50.138;14.544;2022-10-30T09:01:16;98980.63;;;12.49;83.47
75577;BME280;64157;50.138;14.544;2022-10-30T09:03:43;98895.25;;;11.86;83.45
75577;BME280;64157;50.138;14.544;2022-10-30T09:06:09;98988.09;;;12.73;81.42
75577;BME280;64157;50.138;14.544;2022-10-30T09:08:34;98983.38;;;13.01;83.55
75577;BME280;64157;50.138;14.544;2022-10-30T09:11:00;98964.75;;;12.86;81.38
75577;BME280;64157;50.138;14.544;2022-10-30T09:13:26;98992.47;;;13.26;80.20
75577;BME280;64157;50.138;14.544;2022-10-30T09:15:51;98986.56;;;13.27;79.98
75577;BME280;64157;50.138;14.544;2022-10-30T09:18:17;98974.50;;;13.35;78.81
75577;BME280;64157;50.138;14.544;2022-10-30T09:20:43;98955.63;;;13.25;80.14
75577;BME280;64157;50.138;14.544;2022-10-30T09:23:08;98980.38;;;13.62;80.45
75577;BME280;64157;50.138;14.544;2022-10-30T09:25:33;98989.72;;;13.69;80.04
75577;BME280;64157;50.138;14.544;2022-10-30T09:27:59;98991.44;;;13.90;80.43
75577;BME280;64157;50.138;14.544;2022-10-30T09:30:24;98985.59;;;13.79;80.18
75577;BME280;64157;50.138;14.544;2022-10-30T09:32:58;98995.25;;;13.69;77.43
75577;BME280;64157;50.138;14.544;2022-10-30T09:35:24;98995.66;;;13.99;78.69
75577;BME280;64157;50.138;14.544;2022-10-30T09:37:49;98963.78;;;13.93;77.42
75577;BME280;64157;50.138;14.544;2022-10-30T09:46:47;98964.00;;;13.41;78.16
75577;BME280;64157;50.138;14.544;2022-10-30T09:52:27;98929.06;;;14.66;73.49
75577;BME280;64157;50.138;14.544;2022-10-30T09:57:35;98974.41;;;17.84;61.98
75577;BME280;64157;50.138;14.544;2022-10-30T10:00:09;98960.03;;;17.15;63.50
75577;BME280;64157;50.138;14.544;2022-10-30T10:02:46;98967.22;;;17.50;62.18
75577;BME280;64157;50.138;14.544;2022-10-30T10:05:20;98978.06;;;17.92;61.79
75577;BME280;64157;50.138;14.544;2022-10-30T10:07:48;98984.59;;;19.20;59.62
75577;BME280;64157;50.138;14.544;2022-10-30T10:10:27;98943.00;;;19.08;58.65
75577;BME280;64157;50.138;14.544;2022-10-30T10:12:55;98956.44;;;20.21;56.20
75577;BME280;64157;50.138;14.544;2022-10-30T10:15:37;98963.22;;;19.77;56.44
75577;BME280;64157;50.138;14.544;2022-10-30T10:18:09;98961.94;;;18.70;59.21
75577;BME280;64157;50.138;14.544;2022-10-30T10:20:41;98942.09;;;18.31;60.94
75577;BME280;64157;50.138;14.544;2022-10-30T10:23:18;98938.41;;;17.05;64.05
75577;BME280;64157;50.138;14.544;2022-10-30T10:25:48;98957.47;;;16.47;67.14
75577;BME280;64157;50.138;14.544;2022-10-30T10:31:49;98948.41;;;16.53;67.63
75577;BME280;64157;50.138;14.544;2022-10-30T10:37:11;98952.53;;;16.37;70.07
75577;BME280;64157;50.138;14.544;2022-10-30T10:42:56;98948.94;;;16.36;69.87
75577;BME280;64157;50.138;14.544;2022-10-30T10:50:58;98915.66;;;15.94;70.81
75577;BME280;64157;50.138;14.544;2022-10-30T10:56:11;98923.75;;;16.03;70.74
75577;BME280;64157;50.138;14.544;2022-10-30T11:01:21;98898.94;;;15.94;70.10
75577;BME280;64157;50.138;14.544;2022-10-30T11:03:59;98917.91;;;15.85;70.71
75577;BME280;64157;50.138;14.544;2022-10-30T11:06:29;98934.56;;;16.08;70.13
75577;BME280;64157;50.138;14.544;2022-10-30T11:09:04;98926.34;;;15.92;69.84
75577;BME280;64157;50.138;14.544;2022-10-30T11:11:36;98939.56;;;16.22;69.24
75577;BME280;64157;50.138;14.544;2022-10-30T11:14:10;98908.47;;;16.42;67.51
75577;BME280;64157;50.138;14.544;2022-10-30T11:17:14;98937.88;;;16.66;67.73
75577;BME280;64157;50.138;14.544;2022-10-30T11:19:44;98940.88;;;17.14;66.60
75577;BME280;64157;50.138;14.544;2022-10-30T11:22:26;98935.56;;;17.35;65.23
75577;BME280;64157;50.138;14.544;2022-10-30T11:24:54;98930.22;;;17.56;65.26
75577;BME280;64157;50.138;14.544;2022-10-30T11:27:24;98927.16;;;17.65;64.55
75577;BME280;64157;50.138;14.544;2022-10-30T11:30:01;98896.53;;;17.35;64.90
75577;BME280;64157;50.138;14.544;2022-10-30T11:32:29;98895.50;;;17.17;65.09
75577;BME280;64157;50.138;14.544;2022-10-30T11:40:46;98900.97;;;17.40;65.86
75577;BME280;64157;50.138;14.544;2022-10-30T11:43:25;98880.06;;;17.23;65.25
75577;BME280;64157;50.138;14.544;2022-10-30T11:46:21;98862.63;;;17.33;65.41
75577;BME280;64157;50.138;14.544;2022-10-30T11:48:48;98889.75;;;17.36;65.40
75577;BME280;64157;50.138;14.544;2022-10-30T11:51:33;98862.25;;;17.35;64.50
75577;BME280;64157;50.138;14.544;2022-10-30T11:54:00;98894.22;;;17.07;66.19
75577;BME280;64157;50.138;14.544;2022-10-30T11:56:45;98866.44;;;16.84;66.85
75577;BME280;64157;50.138;14.544;2022-10-30T12:02:43;98891.84;;;17.09;66.85
75577;BME280;64157;50.138;14.544;2022-10-30T12:08:24;98907.31;;;16.73;68.12
75577;BME280;64157;50.138;14.544;2022-10-30T12:18:35;98871.34;;;16.08;69.97
75577;BME280;64157;50.138;14.544;2022-10-30T12:21:40;98848.13;;;15.97;70.44
75577;BME280;64157;50.138;14.544;2022-10-30T12:31:25;98812.84;;;15.10;72.09
75577;BME280;64157;50.138;14.544;2022-10-30T12:36:35;98871.78;;;15.19;72.96
75577;BME280;64157;50.138;14.544;2022-10-30T12:42:22;98823.09;;;14.87;73.97
75577;BME280;64157;50.138;14.544;2022-10-30T12:45:33;98865.13;;;15.24;73.65
75577;BME280;64157;50.138;14.544;2022-10-30T13:06:02;98784.75;;;14.73;74.08
75577;BME280;64157;50.138;14.544;2022-10-30T13:08:48;98879.34;;;15.41;73.71
75577;BME280;64157;50.138;14.544;2022-10-30T13:13:58;98863.16;;;15.05;74.69
75577;BME280;64157;50.138;14.544;2022-10-30T13:16:29;98866.50;;;15.14;74.89
75577;BME280;64157;50.138;14.544;2022-10-30T13:18:56;98829.34;;;14.80;75.28
75577;BME280;64157;50.138;14.544;2022-10-30T13:21:34;98840.38;;;14.96;74.88
75577;BME280;64157;50.138;14.544;2022-10-30T13:24:16;98855.72;;;14.90;75.67
75577;BME280;64157;50.138;14.544;2022-10-30T13:27:04;98869.84;;;14.81;76.77
75577;BME280;64157;50.138;14.544;2022-10-30T13:29:55;98839.72;;;14.45;77.70
75577;BME280;64157;50.138;14.544;2022-10-30T13:35:55;98841.31;;;14.11;79.56
75577;BME280;64157;50.138;14.544;2022-10-30T13:44:28;98844.44;;;13.74;81.50
75577;BME280;64157;50.138;14.544;2022-10-30T13:47:09;98833.41;;;13.62;82.00
75577;BME280;64157;50.138;14.544;2022-10-30T13:49:41;98846.47;;;13.61;82.39
75577;BME280;64157;50.138;14.544;2022-10-30T13:52:13;98857.50;;;13.58;82.65
75577;BME280;64157;50.138;14.544;2022-10-30T13:57:34;98853.00;;;13.37;83.21
75577;BME280;64157;50.138;14.544;2022-10-30T14:05:35;98844.88;;;13.29;83.35
75577;BME280;64157;50.138;14.544;2022-10-30T14:10:46;98843.16;;;13.24;83.05
75577;BME280;64157;50.138;14.544;2022-10-30T14:13:26;98813.50;;;13.56;81.87
75577;BME280;64157;50.138;14.544;2022-10-30T14:16:03;98867.56;;;14.67;78.49
75577;BME280;64157;50.138;14.544;2022-10-30T14:18:41;98862.44;;;15.08;76.65
75577;BME280;64157;50.138;14.544;2022-10-30T14:27:54;98854.97;;;15.12;75.83
75577;BME280;64157;50.138;14.544;2022-10-30T14:30:17;98857.53;;;15.01;76.18
75577;BME280;64157;50.138;14.544;2022-10-30T14:32:48;98838.31;;;14.93;76.30
75577;BME280;64157;50.138;14.544;2022-10-30T14:35:28;98846.06;;;15.03;75.91
75577;BME280;64157;50.138;14.544;2022-10-30T14:37:55;98822.22;;;14.83;76.01
75577;BME280;64157;50.138;14.544;2022-10-30T14:40:39;98859.81;;;14.57;77.79
75577;BME280;64157;50.138;14.544;2022-10-30T14:43:23;98859.69;;;14.50;77.98
75577;BME280;64157;50.138;14.544;2022-10-30T14:48:50;98843.88;;;14.54;77.65
75577;BME280;64157;50.138;14.544;2022-10-30T14:56:51;98828.53;;;13.90;80.29
75577;BME280;64157;50.138;14.544;2022-10-30T15:07:23;98842.81;;;13.57;81.99
75577;BME280;64157;50.138;14.544;2022-10-30T15:10:16;98839.88;;;13.50;82.51
75577;BME280;64157;50.138;14.544;2022-10-30T15:15:21;98832.00;;;13.21;83.21
75577;BME280;64157;50.138;14.544;2022-10-30T15:17:48;98813.66;;;12.88;84.13
75577;BME280;64157;50.138;14.544;2022-10-30T15:20:22;98838.47;;;12.97;84.54
75577;BME280;64157;50.138;14.544;2022-10-30T15:22:56;98818.06;;;12.61;85.58
75577;BME280;64157;50.138;14.544;2022-10-30T15:25:29;98814.34;;;12.42;86.12
75577;BME280;64157;50.138;14.544;2022-10-30T15:27:57;98804.59;;;12.32;86.56
75577;BME280;64157;50.138;14.544;2022-10-30T15:30:25;98825.69;;;12.37;86.76
75577;BME280;64157;50.138;14.544;2022-10-30T15:32:51;98803.47;;;12.21;87.01
75577;BME280;64157;50.138;14.544;2022-10-30T15:35:20;98776.81;;;11.88;87.73
75577;BME280;64157;50.138;14.544;2022-10-30T15:38:04;98835.06;;;12.08;88.57
75577;BME280;64157;50.138;14.544;2022-10-30T15:40:30;98844.84;;;12.17;87.87
75577;BME280;64157;50.138;14.544;2022-10-30T15:42:59;98840.97;;;12.06;88.13
75577;BME280;64157;50.138;14.544;2022-10-30T15:45:32;98814.13;;;11.70;89.00